Time;durP1;ratioP1;P1;durP2;ratioP2;P2;SDS_P1;SDS_P2;PMS_P1;PMS_P2;Temp;Humidity;BMP_temperature;BMP_pressure;BME280_temperature;BME280_humidity;BME280_pressure;Samples;Min_cycle;Max_cycle;Signal;HPM_P1;HPM_P2
2023/05/26 00:00:41;;;;;;;19.40;7.23;;;12.80;1.00;;;;;;4955577;29;20170;-85
2023/05/26 00:03:08;;;;;;;22.20;7.17;;;12.80;1.00;;;;;;4952974;29;20173;-81
2023/05/26 00:05:40;;;;;;;21.67;6.27;;;12.80;1.00;;;;;;4953528;29;20173;-84
2023/05/26 00:08:08;;;;;;;23.07;7.70;;;12.70;1.00;;;;;;4951189;29;20202;-82
2023/05/26 00:10:37;;;;;;;19.73;7.73;;;12.80;1.00;;;;;;4953459;29;20154;-80
2023/05/26 00:13:03;;;;;;;20.30;7.93;;;12.60;1.00;;;;;;4947232;29;20209;-84
2023/05/26 00:15:29;;;;;;;23.67;7.13;;;12.60;1.00;;;;;;4951790;29;20170;-83
2023/05/26 00:18:01;;;;;;;22.10;7.20;;;12.60;1.00;;;;;;4951712;29;20240;-84
2023/05/26 00:20:29;;;;;;;21.77;7.37;;;12.60;1.00;;;;;;4947877;29;20162;-83
2023/05/26 00:22:54;;;;;;;25.23;7.27;;;12.50;1.00;;;;;;4940978;29;20209;-85
2023/05/26 00:25:21;;;;;;;16.17;6.70;;;12.50;1.00;;;;;;4937816;29;20180;-85
2023/05/26 00:27:46;;;;;;;20.30;7.67;;;12.50;1.00;;;;;;4943793;29;20193;-83
2023/05/26 00:30:12;;;;;;;19.40;7.57;;;12.50;1.00;;;;;;4944758;29;20172;-85
2023/05/26 00:32:38;;;;;;;23.93;6.50;;;12.40;1.00;;;;;;4943274;29;20200;-85
2023/05/26 00:35:04;;;;;;;21.20;7.40;;;12.40;1.00;;;;;;4937147;29;20216;-84
2023/05/26 00:37:29;;;;;;;26.43;7.73;;;12.40;1.00;;;;;;4937595;29;20180;-83
2023/05/26 00:39:55;;;;;;;26.50;7.93;;;12.40;2.50;;;;;;4935483;29;20181;-84
2023/05/26 00:42:22;;;;;;;17.87;6.87;;;12.40;3.00;;;;;;4936936;29;20183;-83
2023/05/26 00:44:51;;;;;;;19.60;7.17;;;12.30;3.10;;;;;;4935807;29;20637;-85
2023/05/26 00:47:17;;;;;;;19.80;7.10;;;12.30;2.80;;;;;;4938347;29;20552;-85
2023/05/26 00:49:44;;;;;;;23.80;7.30;;;12.20;6.70;;;;;;4939742;29;20251;-82
2023/05/26 00:52:11;;;;;;;22.30;7.40;;;12.30;7.00;;;;;;4940666;29;20281;-83
2023/05/26 00:54:40;;;;;;;21.77;7.17;;;12.10;9.30;;;;;;4939344;29;20209;-82
2023/05/26 00:57:06;;;;;;;32.53;8.13;;;12.10;8.70;;;;;;4940870;29;20245;-84
2023/05/26 00:59:33;;;;;;;20.37;7.63;;;12.10;9.50;;;;;;4937177;29;20177;-83
2023/05/26 01:02:00;;;;;;;18.67;7.33;;;12.10;10.30;;;;;;4936318;29;20539;-85
2023/05/26 01:04:27;;;;;;;22.90;7.50;;;12.10;10.60;;;;;;4940348;29;20176;-80
2023/05/26 01:07:00;;;;;;;25.40;7.73;;;12.00;9.90;;;;;;4940539;29;20197;-84
2023/05/26 01:09:26;;;;;;;20.33;6.77;;;12.00;13.20;;;;;;4937991;29;20298;-84
2023/05/26 01:12:03;;;;;;;25.03;7.80;;;11.90;11.90;;;;;;4938669;29;20180;-84
2023/05/26 01:14:40;;;;;;;19.10;6.67;;;11.90;14.10;;;;;;4936293;29;20204;-83
2023/05/26 01:17:18;;;;;;;22.13;7.03;;;11.90;15.50;;;;;;4935441;29;20180;-85
2023/05/26 01:19:46;;;;;;;21.33;7.67;;;11.90;14.70;;;;;;4940101;29;20184;-85
2023/05/26 01:22:21;;;;;;;25.60;7.67;;;11.80;16.40;;;;;;4940131;29;20220;-82
2023/05/26 01:25:10;;;;;;;25.63;7.70;;;11.80;16.30;;;;;;4940138;29;20214;-84
2023/05/26 01:27:52;;;;;;;19.70;7.03;;;11.80;17.10;;;;;;4939346;29;20177;-83
2023/05/26 01:30:20;;;;;;;24.70;7.93;;;11.80;22.20;;;;;;4938953;29;20169;-85
2023/05/26 01:32:48;;;;;;;20.73;6.83;;;11.70;20.80;;;;;;4938140;29;20177;-84
2023/05/26 01:35:14;;;;;;;18.23;7.03;;;11.70;21.70;;;;;;4938550;29;20256;-83
2023/05/26 01:37:41;;;;;;;22.23;6.77;;;11.60;22.70;;;;;;4939819;29;20197;-85
2023/05/26 01:40:08;;;;;;;24.53;6.97;;;11.60;25.10;;;;;;4937826;29;20181;-85
2023/05/26 01:42:40;;;;;;;19.53;6.57;;;11.50;24.90;;;;;;4939627;29;20180;-82
2023/05/26 01:45:17;;;;;;;21.03;6.73;;;11.50;25.20;;;;;;4938188;29;20187;-83
2023/05/26 01:47:48;;;;;;;18.13;6.30;;;11.50;25.70;;;;;;4939480;29;20176;-84
2023/05/26 01:50:16;;;;;;;20.27;7.57;;;11.50;26.30;;;;;;4938749;29;20177;-83
2023/05/26 01:52:44;;;;;;;27.83;8.10;;;11.50;25.50;;;;;;4938494;29;20173;-83
2023/05/26 01:55:12;;;;;;;28.80;8.53;;;11.50;26.60;;;;;;4938843;29;20240;-84
2023/05/26 01:57:41;;;;;;;27.63;8.57;;;11.40;25.90;;;;;;4938339;29;20603;-83
2023/05/26 02:00:09;;;;;;;24.30;7.20;;;11.40;29.10;;;;;;4954445;28;20161;-82
2023/05/26 02:02:35;;;;;;;27.00;7.07;;;11.40;28.70;;;;;;4960638;28;20184;-84
2023/05/26 02:05:00;;;;;;;22.13;6.73;;;11.40;28.40;;;;;;4961084;28;20205;-82
2023/05/26 02:07:26;;;;;;;24.67;8.43;;;11.30;30.20;;;;;;4961495;28;20183;-83
2023/05/26 02:09:57;;;;;;;21.17;7.10;;;11.40;33.30;;;;;;4959262;28;20197;-83
2023/05/26 02:12:24;;;;;;;20.13;6.73;;;11.40;28.40;;;;;;4952767;29;20157;-82
2023/05/26 02:14:57;;;;;;;23.30;6.70;;;11.40;29.20;;;;;;4943883;29;20208;-83
2023/05/26 02:17:25;;;;;;;24.97;7.43;;;11.40;31.60;;;;;;4939423;29;20256;-84
2023/05/26 02:19:54;;;;;;;21.90;7.10;;;11.40;30.70;;;;;;4937903;29;20191;-84
2023/05/26 02:22:21;;;;;;;21.77;6.90;;;11.30;33.20;;;;;;4939318;29;20165;-85
2023/05/26 02:24:48;;;;;;;24.00;7.37;;;11.30;32.20;;;;;;4939055;29;20209;-83
2023/05/26 02:27:15;;;;;;;26.33;7.10;;;11.20;31.90;;;;;;4938458;29;20634;-83
2023/05/26 02:29:41;;;;;;;23.53;7.37;;;11.20;34.80;;;;;;4937618;29;20658;-81
2023/05/26 02:32:08;;;;;;;21.33;7.17;;;11.20;33.30;;;;;;4938780;29;20176;-83
2023/05/26 02:34:33;;;;;;;19.80;6.87;;;11.20;31.90;;;;;;4939312;29;20213;-81
2023/05/26 02:36:59;;;;;;;20.67;6.03;;;11.20;29.40;;;;;;4937760;29;20181;-83
2023/05/26 02:39:25;;;;;;;19.50;6.30;;;11.30;34.40;;;;;;4937987;29;20173;-84
2023/05/26 02:41:52;;;;;;;26.03;6.60;;;11.20;39.80;;;;;;4938855;29;20173;-86
2023/05/26 02:44:18;;;;;;;21.43;6.13;;;11.10;38.30;;;;;;4956077;28;20233;-81
2023/05/26 02:46:44;;;;;;;22.97;6.80;;;11.10;38.40;;;;;;4959917;28;20200;-81
2023/05/26 02:49:09;;;;;;;26.27;6.70;;;11.00;38.00;;;;;;4959187;29;20173;-80
2023/05/26 02:51:35;;;;;;;26.60;6.67;;;10.90;40.40;;;;;;4945135;29;20263;-84
2023/05/26 02:54:04;;;;;;;27.33;7.40;;;11.00;38.00;;;;;;4937606;29;20696;-85
2023/05/26 02:56:29;;;;;;;27.23;7.50;;;10.90;40.50;;;;;;4937195;29;20177;-82
2023/05/26 02:58:55;;;;;;;22.03;6.30;;;11.00;41.90;;;;;;4936472;29;20240;-83
2023/05/26 03:01:21;;;;;;;23.90;7.33;;;11.00;42.40;;;;;;4949778;29;20177;-81
2023/05/26 03:03:47;;;;;;;21.80;6.73;;;10.90;45.50;;;;;;4950788;29;20196;-84
2023/05/26 03:06:13;;;;;;;21.23;6.90;;;10.90;46.00;;;;;;4960674;28;20180;-84
2023/05/26 03:08:38;;;;;;;22.97;7.10;;;10.90;46.30;;;;;;4959991;28;20251;-80
2023/05/26 03:11:05;;;;;;;20.10;6.87;;;10.90;46.20;;;;;;4957987;29;20177;-82
2023/05/26 03:13:36;;;;;;;22.67;6.93;;;11.00;46.30;;;;;;4946777;29;20212;-82
2023/05/26 03:16:03;;;;;;;19.33;6.03;;;10.90;47.30;;;;;;4937727;29;20158;-83
2023/05/26 03:18:28;;;;;;;23.33;6.37;;;10.80;43.50;;;;;;4936994;29;20220;-84
2023/05/26 03:20:55;;;;;;;16.93;6.07;;;10.80;46.00;;;;;;4941326;29;20228;-83
2023/05/26 03:23:23;;;;;;;19.33;6.57;;;10.70;48.90;;;;;;4940302;29;20172;-82
2023/05/26 03:25:48;;;;;;;20.87;5.90;;;10.60;49.40;;;;;;4938343;29;20169;-85
2023/05/26 03:28:15;;;;;;;21.07;6.53;;;10.50;52.10;;;;;;4937324;29;20173;-84
2023/05/26 03:30:40;;;;;;;24.13;7.57;;;10.50;55.30;;;;;;4937295;29;20252;-85
2023/05/26 03:33:06;;;;;;;25.10;6.97;;;10.50;57.50;;;;;;4936022;29;20269;-84
2023/05/26 03:35:32;;;;;;;22.17;7.10;;;10.50;56.80;;;;;;4936983;29;20172;-85
2023/05/26 03:37:57;;;;;;;20.30;6.70;;;10.50;59.40;;;;;;4937804;29;20732;-83
2023/05/26 03:40:23;;;;;;;25.67;7.20;;;10.50;59.80;;;;;;4935695;29;20177;-85
2023/05/26 03:42:49;;;;;;;24.87;7.87;;;10.50;59.10;;;;;;4935873;29;20169;-84
2023/05/26 03:45:15;;;;;;;20.47;6.57;;;10.40;64.70;;;;;;4935906;29;20223;-84
2023/05/26 03:47:41;;;;;;;25.37;6.47;;;10.40;66.80;;;;;;4935372;29;20189;-85
2023/05/26 03:50:07;;;;;;;20.97;6.27;;;10.30;64.10;;;;;;4936706;29;20188;-83
2023/05/26 03:52:35;;;;;;;24.30;7.07;;;10.40;63.20;;;;;;4934287;29;20550;-84
2023/05/26 03:55:01;;;;;;;20.93;6.40;;;10.40;63.10;;;;;;4937022;29;20209;-83
2023/05/26 03:57:26;;;;;;;25.43;8.23;;;10.40;68.40;;;;;;4936550;29;20228;-84
2023/05/26 03:59:53;;;;;;;26.40;6.83;;;10.50;68.30;;;;;;4936867;29;20184;-83
2023/05/26 04:02:19;;;;;;;19.70;7.07;;;10.30;68.20;;;;;;4936033;29;20177;-85
2023/05/26 04:04:45;;;;;;;21.63;6.67;;;10.40;68.50;;;;;;4934793;29;20188;-86
2023/05/26 04:07:10;;;;;;;24.77;7.53;;;10.30;69.50;;;;;;4947374;29;20165;-81
2023/05/26 04:09:36;;;;;;;26.33;7.27;;;10.30;69.40;;;;;;4955794;29;20196;-80
2023/05/26 04:12:02;;;;;;;23.53;6.40;;;10.40;70.00;;;;;;4958993;28;20224;-79
2023/05/26 04:14:28;;;;;;;21.60;7.23;;;10.20;69.10;;;;;;4947679;29;20632;-83
2023/05/26 04:16:56;;;;;;;23.87;7.47;;;10.20;70.90;;;;;;4939667;29;20177;-82
2023/05/26 04:19:28;;;;;;;28.50;8.57;;;10.30;75.90;;;;;;4938030;29;20173;-83
2023/05/26 04:21:55;;;;;;;24.73;7.60;;;10.30;73.50;;;;;;4937090;29;20172;-82
2023/05/26 04:24:20;;;;;;;21.40;7.37;;;10.30;71.70;;;;;;4935533;29;20185;-85
2023/05/26 04:26:46;;;;;;;23.07;7.47;;;10.30;72.50;;;;;;4935161;29;20185;-83
2023/05/26 04:29:12;;;;;;;30.83;8.30;;;10.20;73.40;;;;;;4936368;29;20205;-85
2023/05/26 04:31:42;;;;;;;29.23;8.83;;;10.20;73.40;;;;;;4934789;29;20533;-84
2023/05/26 04:34:08;;;;;;;29.43;8.20;;;10.20;74.60;;;;;;4934920;29;20677;-84
2023/05/26 04:36:38;;;;;;;26.17;7.13;;;10.30;72.40;;;;;;4934965;29;20512;-84
2023/05/26 04:39:06;;;;;;;26.83;8.20;;;10.30;70.70;;;;;;4936183;29;20172;-81
2023/05/26 04:41:33;;;;;;;25.13;6.87;;;10.30;70.30;;;;;;4937163;29;20173;-84
2023/05/26 04:44:02;;;;;;;23.70;7.10;;;10.20;69.50;;;;;;4935118;29;20185;-85
2023/05/26 04:46:30;;;;;;;30.30;7.63;;;10.30;69.70;;;;;;4934448;29;20200;-84
2023/05/26 04:48:57;;;;;;;26.30;7.70;;;10.30;66.00;;;;;;4937574;29;20244;-83
2023/05/26 04:51:24;;;;;;;29.87;7.33;;;10.40;68.40;;;;;;4935023;29;20177;-84
2023/05/26 04:53:51;;;;;;;23.53;7.40;;;10.30;67.90;;;;;;4937504;29;20212;-83
2023/05/26 04:56:16;;;;;;;28.03;7.80;;;10.30;65.00;;;;;;4938707;29;20264;-83
2023/05/26 04:58:42;;;;;;;22.60;5.90;;;10.40;62.90;;;;;;4939888;29;20233;-83
2023/05/26 05:01:07;;;;;;;24.50;7.03;;;10.30;62.30;;;;;;4940830;29;20240;-84
2023/05/26 05:03:34;;;;;;;26.60;7.43;;;10.20;64.90;;;;;;4941024;29;20232;-84
2023/05/26 05:06:00;;;;;;;21.30;6.83;;;10.20;67.70;;;;;;4940330;29;20201;-82
2023/05/26 05:08:26;;;;;;;23.37;7.37;;;10.20;64.20;;;;;;4940585;29;20220;-84
2023/05/26 05:10:51;;;;;;;27.77;8.80;;;10.20;68.50;;;;;;4940287;29;20516;-83
2023/05/26 05:13:18;;;;;;;28.90;6.47;;;10.20;67.50;;;;;;4942361;29;20204;-84
2023/05/26 05:15:43;;;;;;;20.83;6.83;;;10.20;62.80;;;;;;4943678;29;20173;-82
2023/05/26 05:18:09;;;;;;;26.20;7.53;;;10.10;64.40;;;;;;4943712;29;20462;-85
2023/05/26 05:20:35;;;;;;;25.60;6.83;;;10.20;66.10;;;;;;4954969;29;20713;-82
2023/05/26 05:23:01;;;;;;;27.77;7.40;;;10.30;65.90;;;;;;4956153;29;20160;-81
2023/05/26 05:25:26;;;;;;;24.30;6.77;;;10.10;68.90;;;;;;4958209;29;20169;-79
2023/05/26 05:27:55;;;;;;;25.13;7.13;;;10.20;66.00;;;;;;4948157;29;20630;-82
2023/05/26 05:30:22;;;;;;;27.13;7.47;;;10.10;64.80;;;;;;4943703;29;20268;-82
2023/05/26 05:32:47;;;;;;;30.03;6.83;;;10.10;63.80;;;;;;4940232;29;20240;-81
2023/05/26 05:35:18;;;;;;;27.33;7.90;;;10.10;64.00;;;;;;4939500;29;20736;-81
2023/05/26 05:37:45;;;;;;;22.90;7.20;;;10.20;62.30;;;;;;4939026;29;20568;-82
2023/05/26 05:40:11;;;;;;;25.80;7.53;;;10.30;59.60;;;;;;4939229;29;20763;-84
2023/05/26 05:42:37;;;;;;;30.57;7.60;;;10.30;56.50;;;;;;4939114;29;20236;-81
2023/05/26 05:45:04;;;;;;;24.97;7.63;;;10.40;57.00;;;;;;4939463;29;20162;-81
2023/05/26 05:47:30;;;;;;;28.27;7.20;;;10.50;52.80;;;;;;4949161;28;20157;-82
2023/05/26 05:49:56;;;;;;;29.53;7.27;;;10.50;46.40;;;;;;4959123;28;20223;-83
2023/05/26 05:52:21;;;;;;;25.97;6.73;;;10.50;45.70;;;;;;4946005;29;20180;-83
2023/05/26 05:54:47;;;;;;;29.93;7.23;;;10.50;42.10;;;;;;4943594;29;20216;-81
2023/05/26 05:57:13;;;;;;;32.17;8.23;;;10.60;46.20;;;;;;4940053;29;20619;-83
2023/05/26 05:59:39;;;;;;;24.43;7.23;;;10.60;48.60;;;;;;4940161;29;20248;-85
2023/05/26 06:02:05;;;;;;;28.17;7.27;;;10.70;42.20;;;;;;4939182;29;20579;-82
2023/05/26 06:04:31;;;;;;;21.53;6.83;;;10.80;36.20;;;;;;4937671;29;20177;-85
2023/05/26 06:06:57;;;;;;;27.00;7.77;;;10.80;33.20;;;;;;4937878;29;20649;-84
2023/05/26 06:09:22;;;;;;;20.93;6.87;;;10.90;32.30;;;;;;4954217;28;20188;-81
2023/05/26 06:11:50;;;;;;;28.80;7.53;;;11.10;28.00;;;;;;4961184;28;20176;-84
2023/05/26 06:14:16;;;;;;;20.10;7.13;;;11.10;26.30;;;;;;4944127;29;20559;-81
2023/05/26 06:16:44;;;;;;;23.17;7.10;;;11.30;20.60;;;;;;4945958;29;20244;-82
2023/05/26 06:19:09;;;;;;;21.50;6.10;;;11.20;17.80;;;;;;4955724;29;20208;-83
2023/05/26 06:21:35;;;;;;;22.63;7.07;;;11.20;12.20;;;;;;4955782;29;20165;-82
2023/05/26 06:24:02;;;;;;;28.30;8.50;;;11.30;21.30;;;;;;4957594;28;20502;-80
2023/05/26 06:26:28;;;;;;;27.27;7.37;;;11.30;19.70;;;;;;4957136;28;20663;-82
2023/05/26 06:28:54;;;;;;;22.83;6.77;;;11.20;11.60;;;;;;4954983;29;20180;-81
2023/05/26 06:31:19;;;;;;;22.57;6.77;;;11.30;12.40;;;;;;4957417;29;20168;-82
2023/05/26 06:33:45;;;;;;;22.00;7.43;;;11.30;13.40;;;;;;4956684;28;20699;-84
2023/05/26 06:36:11;;;;;;;25.40;8.03;;;11.30;11.00;;;;;;4955536;29;20243;-82
2023/05/26 06:38:37;;;;;;;30.47;8.67;;;11.40;10.90;;;;;;4958070;29;20181;-84
2023/05/26 06:41:02;;;;;;;24.53;7.77;;;11.60;11.70;;;;;;4955522;29;20177;-85
2023/05/26 06:43:28;;;;;;;18.07;5.90;;;11.30;9.50;;;;;;4957836;28;20172;-82
2023/05/26 06:45:54;;;;;;;25.03;7.13;;;11.30;12.10;;;;;;4957221;29;20227;-83
2023/05/26 06:48:21;;;;;;;22.90;7.37;;;11.20;13.30;;;;;;4956767;29;20172;-81
2023/05/26 06:50:47;;;;;;;22.37;7.07;;;11.30;14.90;;;;;;4958166;28;20184;-83
2023/05/26 06:53:13;;;;;;;26.77;7.70;;;11.50;9.70;;;;;;4958191;29;20172;-85
2023/05/26 06:55:38;;;;;;;19.87;7.33;;;11.60;5.40;;;;;;4958652;29;20207;-83
2023/05/26 06:58:04;;;;;;;30.50;7.50;;;11.60;3.00;;;;;;4959607;29;20644;-82
2023/05/26 07:00:31;;;;;;;21.60;5.87;;;11.60;3.00;;;;;;4958910;29;20206;-84
2023/05/26 07:02:57;;;;;;;24.03;6.77;;;11.70;1.00;;;;;;4956999;29;20215;-86
2023/05/26 07:05:23;;;;;;;26.27;7.27;;;11.70;1.00;;;;;;4957411;29;20188;-84
2023/05/26 07:07:49;;;;;;;23.70;7.17;;;11.80;1.00;;;;;;4956787;29;20256;-87
2023/05/26 07:10:15;;;;;;;26.77;7.23;;;11.90;1.00;;;;;;4958139;29;20282;-84
2023/05/26 07:12:41;;;;;;;23.77;7.03;;;11.90;1.00;;;;;;4957976;28;20180;-83
2023/05/26 07:15:08;;;;;;;21.17;5.93;;;11.90;1.00;;;;;;4958432;28;20212;-86
2023/05/26 07:17:33;;;;;;;24.57;6.43;;;11.90;1.00;;;;;;4959020;29;20213;-83
2023/05/26 07:19:59;;;;;;;26.77;7.03;;;11.80;1.00;;;;;;4956676;29;20180;-82
2023/05/26 07:22:25;;;;;;;25.47;7.20;;;11.90;1.00;;;;;;4956915;29;20175;-83
2023/05/26 07:24:50;;;;;;;20.67;6.80;;;11.90;1.00;;;;;;4957362;29;20231;-84
2023/05/26 07:27:16;;;;;;;22.13;6.97;;;11.90;1.00;;;;;;4957825;29;20539;-85
2023/05/26 07:29:42;;;;;;;21.90;6.10;;;12.00;1.00;;;;;;4957318;29;20180;-83
2023/05/26 07:32:08;;;;;;;21.07;6.30;;;12.10;1.00;;;;;;4958560;29;21023;-85
2023/05/26 07:34:34;;;;;;;29.27;7.60;;;12.00;1.00;;;;;;4958821;29;20259;-84
2023/05/26 07:37:00;;;;;;;22.83;7.30;;;12.10;1.00;;;;;;4958990;28;20189;-85
2023/05/26 07:39:26;;;;;;;24.57;7.37;;;12.10;1.00;;;;;;4958613;29;20326;-81
2023/05/26 07:41:52;;;;;;;22.57;6.70;;;12.10;1.00;;;;;;4973579;29;20165;-84
2023/05/26 07:44:17;;;;;;;28.20;7.63;;;12.10;1.00;;;;;;4958535;29;20199;-83
2023/05/26 07:46:46;;;;;;;20.40;6.67;;;12.30;1.00;;;;;;4957957;29;20199;-84
2023/05/26 07:49:13;;;;;;;18.63;6.90;;;12.30;1.00;;;;;;4956140;29;20175;-80
2023/05/26 07:51:39;;;;;;;19.73;6.87;;;12.10;1.00;;;;;;4957373;29;20231;-85
2023/05/26 07:54:05;;;;;;;16.53;6.60;;;12.10;1.00;;;;;;4955377;29;20232;-84
2023/05/26 07:56:31;;;;;;;19.33;5.97;;;12.20;1.00;;;;;;4957550;29;20188;-82
2023/05/26 07:58:58;;;;;;;75.43;12.27;;;12.30;1.00;;;;;;4976410;29;20199;-81
2023/05/26 08:01:23;;;;;;;25.93;7.53;;;12.40;1.00;;;;;;4968242;29;20618;-84
2023/05/26 08:03:49;;;;;;;22.07;7.33;;;12.50;1.00;;;;;;4956557;29;20183;-82
2023/05/26 08:06:16;;;;;;;24.27;7.30;;;12.70;1.00;;;;;;4956697;29;20587;-83
2023/05/26 08:08:41;;;;;;;19.13;6.43;;;12.80;1.00;;;;;;4956399;29;20201;-86
2023/05/26 08:11:17;;;;;;;21.47;7.13;;;12.80;1.00;;;;;;4955940;29;20625;-82
2023/05/26 08:13:43;;;;;;;23.50;6.93;;;12.70;1.00;;;;;;4961348;29;20204;-82
2023/05/26 08:16:09;;;;;;;24.73;7.30;;;12.80;1.00;;;;;;4961519;29;20178;-83
2023/05/26 08:18:34;;;;;;;21.47;6.73;;;12.90;1.00;;;;;;4960938;28;20177;-85
2023/05/26 08:21:00;;;;;;;18.67;6.87;;;12.90;1.00;;;;;;4960870;29;20259;-82
2023/05/26 08:23:26;;;;;;;22.07;6.63;;;13.10;1.00;;;;;;4963932;29;20178;-83
2023/05/26 08:25:51;;;;;;;21.43;5.97;;;13.00;1.00;;;;;;4963144;29;20188;-81
2023/05/26 08:28:17;;;;;;;20.83;6.80;;;13.00;1.00;;;;;;4959867;29;20518;-84
2023/05/26 08:30:44;;;;;;;28.57;7.77;;;13.00;1.00;;;;;;4960122;29;20238;-85
2023/05/26 08:33:10;;;;;;;23.33;7.27;;;13.20;1.00;;;;;;4956097;28;20165;-84
2023/05/26 08:35:36;;;;;;;21.30;6.23;;;13.30;1.00;;;;;;4955515;29;20516;-84
2023/05/26 08:38:01;;;;;;;21.50;5.80;;;13.40;1.00;;;;;;4957937;29;20175;-84
2023/05/26 08:40:27;;;;;;;15.33;5.47;;;13.40;1.00;;;;;;4960015;29;20179;-80
2023/05/26 08:42:56;;;;;;;20.30;5.93;;;13.30;1.00;;;;;;4975619;29;20189;-83
2023/05/26 08:45:24;;;;;;;21.60;6.53;;;13.30;1.00;;;;;;4974482;28;20239;-84
2023/05/26 08:47:51;;;;;;;21.57;5.67;;;13.40;1.00;;;;;;4977493;29;20166;-82
2023/05/26 08:50:30;;;;;;;21.53;5.77;;;13.50;1.00;;;;;;4963817;28;20180;-83
2023/05/26 08:53:03;;;;;;;21.00;6.23;;;13.60;1.00;;;;;;4970063;28;20178;-84
2023/05/26 08:55:38;;;;;;;21.10;6.47;;;13.60;1.00;;;;;;4978669;28;20188;-83
2023/05/26 08:58:07;;;;;;;20.73;6.50;;;13.70;1.00;;;;;;4974883;29;20188;-82
2023/05/26 09:00:48;;;;;;;19.80;6.63;;;13.70;1.00;;;;;;4965143;28;20195;-85
2023/05/26 09:03:26;;;;;;;21.13;6.67;;;13.80;1.00;;;;;;4955245;29;20183;-87
2023/05/26 09:05:52;;;;;;;19.40;6.00;;;14.10;1.00;;;;;;4956591;29;20178;-83
2023/05/26 09:08:17;;;;;;;19.83;5.77;;;14.30;1.00;;;;;;4955082;29;20553;-83
2023/05/26 09:10:45;;;;;;;17.87;5.27;;;14.30;1.00;;;;;;4955405;29;20642;-86
2023/05/26 09:13:15;;;;;;;18.63;5.30;;;14.20;1.00;;;;;;4957062;29;20183;-85
2023/05/26 09:15:41;;;;;;;17.67;6.10;;;14.30;1.00;;;;;;4978635;28;20219;-85
2023/05/26 09:18:12;;;;;;;19.60;6.63;;;14.20;1.00;;;;;;4977710;28;20172;-83
2023/05/26 09:20:48;;;;;;;30.77;7.13;;;14.30;1.00;;;;;;4976802;28;20183;-83
2023/05/26 09:23:21;;;;;;;19.33;6.03;;;14.40;1.00;;;;;;4961347;28;20174;-85
2023/05/26 09:25:51;;;;;;;16.37;6.23;;;14.40;1.00;;;;;;4955316;29;20637;-84
2023/05/26 09:28:20;;;;;;;21.93;6.03;;;14.40;1.00;;;;;;4956553;29;20182;-84
2023/05/26 09:30:46;;;;;;;18.50;6.27;;;14.40;1.00;;;;;;4956478;29;20182;-87
2023/05/26 09:33:15;;;;;;;21.47;6.50;;;14.40;1.00;;;;;;4961420;29;20244;-83
2023/05/26 09:35:46;;;;;;;19.53;6.40;;;14.40;1.00;;;;;;4960986;28;20172;-87
2023/05/26 09:38:15;;;;;;;21.77;6.47;;;14.50;1.00;;;;;;4938723;29;20179;-87
2023/05/26 09:40:48;;;;;;;22.80;7.17;;;14.70;1.00;;;;;;4938205;29;20260;-87
2023/05/26 09:43:18;;;;;;;16.47;5.90;;;14.70;1.00;;;;;;4940108;29;20327;-86
2023/05/26 09:45:44;;;;;;;19.93;6.50;;;14.80;1.00;;;;;;4940783;29;20251;-87
2023/05/26 09:48:11;;;;;;;18.97;6.47;;;14.80;1.00;;;;;;4940632;29;20319;-87
2023/05/26 09:50:38;;;;;;;21.30;5.63;;;15.00;1.00;;;;;;4944558;29;20179;-86
2023/05/26 09:53:06;;;;;;;19.30;5.80;;;15.00;99.90;;;;;;4941715;29;20177;-86
2023/05/26 09:55:32;;;;;;;21.43;5.67;;;15.20;99.90;;;;;;4941117;29;20181;-85
2023/05/26 09:58:06;;;;;;;18.87;6.40;;;15.10;99.90;;;;;;4940302;29;20189;-85
2023/05/26 10:00:37;;;;;;;21.53;6.90;;;15.10;99.90;;;;;;4940041;29;20191;-85
2023/05/26 10:03:05;;;;;;;19.10;6.53;;;15.40;1.00;;;;;;4940664;29;20179;-87
2023/05/26 10:05:38;;;;;;;13.20;5.17;;;15.50;99.90;;;;;;4942206;29;20215;-86
2023/05/26 10:08:09;;;;;;;20.57;6.20;;;15.60;99.90;;;;;;4941431;29;20191;-85
2023/05/26 10:10:35;;;;;;;24.70;6.50;;;15.30;99.90;;;;;;4953768;28;20153;-86
2023/05/26 10:13:03;;;;;;;17.20;5.23;;;15.40;99.90;;;;;;4950324;29;20177;-86
2023/05/26 10:15:29;;;;;;;21.30;6.50;;;15.40;99.90;;;;;;4940472;29;20185;-86
2023/05/26 10:18:01;;;;;;;15.73;5.57;;;15.60;99.90;;;;;;4940593;29;20526;-87
2023/05/26 10:20:27;;;;;;;16.33;6.10;;;15.70;99.90;;;;;;4941533;29;20185;-82
2023/05/26 10:23:01;;;;;;;15.43;4.70;;;15.80;99.90;;;;;;4939774;29;20216;-84
2023/05/26 10:25:35;;;;;;;16.30;5.07;;;15.70;99.90;;;;;;4940049;29;20181;-86
2023/05/26 10:28:13;;;;;;;19.03;5.27;;;15.70;99.90;;;;;;4956506;29;20185;-85
2023/05/26 10:30:41;;;;;;;19.50;6.63;;;15.80;99.90;;;;;;4955166;29;20170;-85
2023/05/26 10:33:15;;;;;;;24.77;5.87;;;15.90;99.90;;;;;;4955280;28;20222;-85
2023/05/26 10:35:55;;;;;;;21.50;5.33;;;16.00;99.90;;;;;;4960424;28;20185;-85
2023/05/26 10:38:34;;;;;;;13.93;4.70;;;16.10;1.00;;;;;;4961732;28;20169;-84
2023/05/26 10:41:00;;;;;;;15.40;4.90;;;16.00;1.00;;;;;;4950878;28;20176;-87
2023/05/26 10:43:27;;;;;;;16.27;5.37;;;16.00;56.30;;;;;;4940577;29;20556;-85
2023/05/26 10:46:03;;;;;;;20.70;6.37;;;16.00;1.00;;;;;;4941242;29;20208;-86
2023/05/26 10:48:40;;;;;;;20.60;5.90;;;16.00;99.90;;;;;;4941039;29;20177;-86
2023/05/26 10:51:09;;;;;;;18.23;6.03;;;16.20;96.70;;;;;;4939622;29;20503;-86
2023/05/26 10:53:41;;;;;;;19.50;6.00;;;16.40;99.90;;;;;;4939932;29;20523;-86
2023/05/26 10:56:08;;;;;;;17.03;5.93;;;16.60;40.80;;;;;;4940238;29;20180;-85
2023/05/26 10:58:45;;;;;;;16.03;5.43;;;16.60;5.80;;;;;;4940536;29;20176;-85
2023/05/26 11:01:12;;;;;;;16.13;5.20;;;16.50;1.00;;;;;;4942705;29;20172;-86
2023/05/26 11:03:45;;;;;;;20.33;5.37;;;16.40;1.00;;;;;;4942703;29;20197;-88
2023/05/26 11:06:14;;;;;;;14.43;5.50;;;16.50;1.00;;;;;;4940611;29;20185;-84
2023/05/26 11:08:45;;;;;;;18.87;5.30;;;16.50;1.00;;;;;;4941445;29;20192;-86
2023/05/26 11:11:13;;;;;;;17.40;5.90;;;16.80;1.00;;;;;;4940707;29;20177;-86
2023/05/26 11:13:45;;;;;;;20.87;5.57;;;16.70;1.00;;;;;;4941296;29;20711;-87
2023/05/26 11:16:29;;;;;;;22.87;5.83;;;16.60;1.00;;;;;;4944159;29;20178;-85
2023/05/26 11:18:57;;;;;;;22.77;5.87;;;17.00;1.00;;;;;;4942288;29;20173;-86
2023/05/26 11:21:31;;;;;;;13.67;4.80;;;17.00;99.90;;;;;;4939521;29;20177;-84
2023/05/26 11:23:58;;;;;;;17.47;5.43;;;17.10;1.00;;;;;;4941329;29;20175;-86
2023/05/26 11:26:31;;;;;;;10.57;3.87;;;17.20;99.90;;;;;;4943429;29;20681;-85
2023/05/26 11:29:00;;;;;;;18.40;5.43;;;17.00;1.00;;;;;;4942617;29;20222;-86
2023/05/26 11:31:26;;;;;;;13.50;4.10;;;16.90;99.90;;;;;;4940082;29;20216;-84
2023/05/26 11:33:52;;;;;;;16.77;4.97;;;17.10;1.00;;;;;;4939821;29;20271;-85
2023/05/26 11:36:20;;;;;;;14.93;4.37;;;17.10;99.90;;;;;;4943053;29;20178;-87
2023/05/26 11:38:47;;;;;;;16.37;4.83;;;17.00;99.90;;;;;;4944051;29;20174;-85
2023/05/26 11:41:17;;;;;;;16.13;5.10;;;17.20;1.00;;;;;;4938967;29;20173;-86
2023/05/26 11:43:46;;;;;;;16.43;4.73;;;17.40;1.00;;;;;;4939696;29;20179;-85
2023/05/26 11:46:15;;;;;;;15.47;4.37;;;17.50;1.00;;;;;;4941694;29;20204;-86
2023/05/26 11:48:42;;;;;;;12.90;4.30;;;17.50;99.90;;;;;;4940437;29;20185;-87
2023/05/26 11:51:10;;;;;;;10.60;3.77;;;17.50;1.00;;;;;;4940524;29;20253;-85
2023/05/26 11:53:37;;;;;;;10.83;4.10;;;17.60;1.00;;;;;;4940134;29;20209;-88
2023/05/26 11:56:07;;;;;;;14.13;4.63;;;17.60;99.90;;;;;;4942178;29;20170;-86
2023/05/26 11:58:38;;;;;;;15.43;5.20;;;17.70;99.90;;;;;;4955416;28;20179;-85
2023/05/26 12:01:05;;;;;;;12.73;4.67;;;17.80;1.00;;;;;;4958738;28;20181;-82
2023/05/26 12:03:37;;;;;;;16.00;5.03;;;17.70;99.90;;;;;;4958829;28;20166;-83
2023/05/26 12:06:24;;;;;;;24.43;5.47;;;17.80;99.90;;;;;;4958794;28;20189;-85
2023/05/26 12:08:54;;;;;;;13.10;4.50;;;17.80;99.90;;;;;;4953964;28;20192;-86
2023/05/26 12:11:41;;;;;;;16.63;4.53;;;17.80;99.90;;;;;;4951250;28;20177;-87
2023/05/26 12:14:22;;;;;;;12.20;4.40;;;17.70;1.00;;;;;;4947658;29;20208;-86
2023/05/26 12:17:03;;;;;;;11.37;3.70;;;17.80;1.00;;;;;;4944039;29;20196;-82
2023/05/26 12:19:39;;;;;;;12.23;3.80;;;18.00;88.40;;;;;;4952974;28;20153;-82
2023/05/26 12:22:05;;;;;;;12.30;4.27;;;18.00;1.00;;;;;;4959498;28;20185;-83
2023/05/26 12:24:35;;;;;;;12.13;3.80;;;17.90;1.00;;;;;;4957341;28;20182;-83
2023/05/26 12:27:11;;;;;;;13.60;4.50;;;18.00;21.30;;;;;;4952826;29;20185;-86
2023/05/26 12:29:41;;;;;;;12.50;4.73;;;18.10;99.90;;;;;;4943052;29;20179;-86
2023/05/26 12:32:14;;;;;;;15.70;4.70;;;18.10;1.00;;;;;;4940849;29;20250;-86
2023/05/26 12:34:43;;;;;;;14.80;4.37;;;18.30;99.90;;;;;;4943182;29;20226;-85
2023/05/26 12:37:09;;;;;;;12.27;4.27;;;18.40;99.90;;;;;;4943314;29;20267;-84
2023/05/26 12:39:36;;;;;;;12.50;4.27;;;18.30;99.90;;;;;;4948316;29;20183;-83
2023/05/26 12:42:02;;;;;;;12.37;4.40;;;18.20;1.00;;;;;;4953705;28;20187;-86
2023/05/26 12:44:28;;;;;;;14.00;4.20;;;18.40;99.90;;;;;;4943205;29;20170;-84